createdAt,value
2023-03-02T00:02:19.117Z,8.93
2023-03-02T00:04:47.933Z,9.70
2023-03-02T00:07:16.848Z,10.75
2023-03-02T00:09:45.922Z,11.93
2023-03-02T00:12:13.632Z,13.43
2023-03-02T00:14:41.319Z,14.10
2023-03-02T00:17:10.346Z,16.42
2023-03-02T00:19:38.872Z,17.83
2023-03-02T00:22:06.530Z,19.55
2023-03-02T00:24:34.209Z,21.60
2023-03-02T00:27:03.216Z,23.73
2023-03-02T00:29:30.905Z,26.05
2023-03-02T00:31:58.587Z,28.33
2023-03-02T00:34:26.286Z,31.38
2023-03-02T00:36:53.944Z,32.95
2023-03-02T00:39:21.636Z,35.70
2023-03-02T00:41:49.534Z,39.92
2023-03-02T00:44:18.530Z,43.10
2023-03-02T00:46:46.306Z,46.30
2023-03-02T00:49:14.127Z,50.17
2023-03-02T00:51:41.795Z,52.80
2023-03-02T00:54:09.715Z,57.00
2023-03-02T00:56:37.707Z,62.25
2023-03-02T00:59:07.365Z,64.55
2023-03-02T01:01:36.972Z,70.50
2023-03-02T01:04:04.893Z,76.78
2023-03-02T01:06:33.416Z,84.13
2023-03-02T01:09:01.219Z,88.93
2023-03-02T01:11:28.889Z,93.88
2023-03-02T01:13:56.554Z,101.72
2023-03-02T01:16:24.267Z,107.40
2023-03-02T01:18:53.304Z,113.70
2023-03-02T01:21:20.966Z,117.18
2023-03-02T01:23:48.634Z,124.30
2023-03-02T01:26:16.713Z,132.35
2023-03-02T01:28:44.383Z,134.82
2023-03-02T01:31:12.261Z,142.63
2023-03-02T01:33:39.955Z,144.73
2023-03-02T01:36:09.473Z,153.38
2023-03-02T01:38:37.195Z,157.73
2023-03-02T01:41:05.228Z,161.50
2023-03-02T01:43:32.946Z,170.57
2023-03-02T01:46:00.825Z,174.43
2023-03-02T01:48:46.379Z,178.82
2023-03-02T01:51:19.801Z,188.55
2023-03-02T01:53:48.441Z,194.35
2023-03-02T01:56:16.390Z,198.20
2023-03-02T01:58:44.100Z,209.05
2023-03-02T02:01:15.429Z,213.02
2023-03-02T02:03:43.416Z,218.10
2023-03-02T02:06:17.835Z,225.15
2023-03-02T02:08:46.914Z,227.20
2023-03-02T02:11:14.653Z,229.18
2023-03-02T02:13:42.397Z,234.55
2023-03-02T02:16:10.458Z,242.45
2023-03-02T02:18:39.394Z,246.95
2023-03-02T02:21:07.222Z,250.18
2023-03-02T02:23:36.416Z,255.57
2023-03-02T02:26:18.174Z,264.25
2023-03-02T02:28:48.607Z,265.83
2023-03-02T02:31:17.207Z,273.15
2023-03-02T02:33:46.198Z,272.67
2023-03-02T02:36:16.842Z,279.15
2023-03-02T02:38:45.733Z,281.23
2023-03-02T02:41:19.078Z,278.38
2023-03-02T02:43:46.874Z,283.50
2023-03-02T02:46:14.681Z,293.23
2023-03-02T02:48:42.364Z,300.40
2023-03-02T02:51:10.260Z,300.02
2023-03-02T02:53:41.613Z,306.83
2023-03-02T02:56:09.366Z,306.60
2023-03-02T02:58:40.886Z,311.10
2023-03-02T03:01:08.731Z,316.52
2023-03-02T03:03:39.202Z,319.75
2023-03-02T03:06:14.512Z,320.25
2023-03-02T03:08:54.036Z,321.42
2023-03-02T03:11:28.288Z,323.33
2023-03-02T03:14:03.890Z,328.92
2023-03-02T03:16:33.013Z,318.98
2023-03-02T03:19:05.391Z,327.17
2023-03-02T03:21:33.097Z,330.20
2023-03-02T03:24:00.774Z,332.52
2023-03-02T03:26:28.822Z,333.00
2023-03-02T03:28:58.117Z,330.20
2023-03-02T03:31:27.884Z,333.05
2023-03-02T03:33:55.809Z,335.02
2023-03-02T03:36:23.608Z,337.60
2023-03-02T03:38:51.392Z,336.70
2023-03-02T03:41:19.358Z,338.55
2023-03-02T03:43:47.053Z,336.65
2023-03-02T03:46:14.908Z,336.52
2023-03-02T03:48:44.073Z,340.10
2023-03-02T03:51:11.899Z,337.23
2023-03-02T03:53:39.642Z,344.42
2023-03-02T03:56:08.066Z,342.10
2023-03-02T03:58:35.820Z,342.90
2023-03-02T04:01:04.558Z,342.23
2023-03-02T04:03:32.376Z,341.30
2023-03-02T04:06:01.443Z,339.25
2023-03-02T04:08:29.154Z,348.50
2023-03-02T04:10:57.336Z,344.20
2023-03-02T04:13:26.101Z,348.40
2023-03-02T04:15:53.863Z,342.75
2023-03-02T04:18:21.669Z,346.30
2023-03-02T04:20:49.532Z,344.60
2023-03-02T04:23:18.634Z,346.80
2023-03-02T04:25:47.000Z,342.67
2023-03-02T04:28:19.064Z,340.38
2023-03-02T04:30:46.962Z,340.10
2023-03-02T04:33:14.980Z,343.50
2023-03-02T04:35:42.739Z,341.70
2023-03-02T04:38:10.515Z,347.15
2023-03-02T04:40:39.679Z,342.42
2023-03-02T04:43:07.324Z,348.42
2023-03-02T04:45:35.069Z,341.63
2023-03-02T04:48:02.724Z,349.25
2023-03-02T04:50:30.438Z,341.10
2023-03-02T04:52:58.104Z,338.70
2023-03-02T04:55:26.860Z,335.60
2023-03-02T04:57:55.860Z,339.30
2023-03-02T05:00:23.848Z,339.15
2023-03-02T05:02:51.621Z,333.65
2023-03-02T05:05:20.482Z,334.02
2023-03-02T05:07:48.190Z,335.85
2023-03-02T05:10:16.570Z,328.98
2023-03-02T05:12:55.608Z,326.83
2023-03-02T05:15:24.862Z,324.30
2023-03-02T05:17:52.525Z,324.42
2023-03-02T05:20:20.686Z,313.83
2023-03-02T05:22:48.433Z,316.30
2023-03-02T05:25:16.094Z,312.60
2023-03-02T05:27:43.853Z,311.48
2023-03-02T05:30:12.978Z,312.58
2023-03-02T05:32:42.342Z,310.27
2023-03-02T05:35:10.533Z,305.52
2023-03-02T05:37:41.430Z,308.38
2023-03-02T05:40:10.296Z,305.80
2023-03-02T05:42:37.962Z,306.17
2023-03-02T05:45:06.043Z,304.77
2023-03-02T05:47:33.703Z,302.90
2023-03-02T05:50:02.714Z,300.70
2023-03-02T05:52:30.508Z,296.00
2023-03-02T05:54:59.515Z,291.55
2023-03-02T05:57:27.643Z,286.52
2023-03-02T05:59:55.341Z,286.75
2023-03-02T06:02:23.063Z,280.15
2023-03-02T06:04:50.803Z,285.40
2023-03-02T06:07:19.786Z,278.55
2023-03-02T06:09:47.460Z,279.98
2023-03-02T06:12:15.123Z,274.42
2023-03-02T06:14:42.892Z,275.33
2023-03-02T06:17:10.573Z,273.77
2023-03-02T06:19:38.267Z,271.90
2023-03-02T06:22:05.952Z,269.58
2023-03-02T06:24:35.042Z,267.58
2023-03-02T06:27:02.895Z,261.13
2023-03-02T06:29:30.558Z,257.85
2023-03-02T06:31:58.380Z,261.17
2023-03-02T06:34:26.272Z,260.60
2023-03-02T06:36:54.629Z,260.38
2023-03-02T06:39:22.442Z,251.18
2023-03-02T06:41:51.479Z,250.43
2023-03-02T06:44:19.213Z,246.23
2023-03-02T06:46:47.066Z,245.18
2023-03-02T06:49:14.746Z,241.38
2023-03-02T06:51:42.391Z,241.70
2023-03-02T06:54:10.072Z,233.57
2023-03-02T06:56:40.029Z,232.07
2023-03-02T06:59:09.909Z,231.48
2023-03-02T07:01:37.701Z,226.30
2023-03-02T07:04:05.622Z,224.45
2023-03-02T07:06:33.344Z,222.25
2023-03-02T07:09:01.949Z,215.07
2023-03-02T07:11:29.634Z,218.75
2023-03-02T07:13:57.298Z,211.75
2023-03-02T07:16:26.420Z,213.20
2023-03-02T07:18:54.101Z,217.20
2023-03-02T07:21:21.796Z,210.00
2023-03-02T07:23:49.460Z,209.30
2023-03-02T07:26:17.137Z,202.10
2023-03-02T07:28:44.887Z,201.35
2023-03-02T07:31:12.754Z,196.68
2023-03-02T07:33:41.883Z,196.75
2023-03-02T07:36:09.921Z,189.60
2023-03-02T07:38:37.754Z,186.93
2023-03-02T07:41:07.935Z,187.60
2023-03-02T07:43:36.575Z,187.73
2023-03-02T07:46:04.424Z,183.13
2023-03-02T07:48:32.169Z,179.05
2023-03-02T07:51:01.648Z,174.38
2023-03-02T07:53:29.543Z,172.48
2023-03-02T07:55:57.245Z,166.82
2023-03-02T07:58:25.177Z,166.07
2023-03-02T08:00:52.869Z,162.35
2023-03-02T08:03:20.562Z,158.68
2023-03-02T08:05:48.306Z,160.43
2023-03-02T08:08:17.308Z,157.13
2023-03-02T08:10:45.030Z,157.60
2023-03-02T08:13:12.675Z,153.50
2023-03-02T08:15:40.345Z,153.40
2023-03-02T08:18:07.996Z,151.23
2023-03-02T08:20:35.696Z,150.75
2023-03-02T08:23:03.390Z,150.20
2023-03-02T08:25:32.426Z,146.40
2023-03-02T08:28:00.100Z,143.07
2023-03-02T08:30:27.868Z,142.93
2023-03-02T08:32:55.560Z,138.88
2023-03-02T08:35:23.334Z,136.63
2023-03-02T08:37:51.033Z,134.68
2023-03-02T08:40:18.887Z,134.35
2023-03-02T08:42:49.713Z,133.95
2023-03-02T08:45:19.376Z,132.10
2023-03-02T08:47:47.043Z,128.38
2023-03-02T08:50:14.725Z,127.18
2023-03-02T08:52:43.549Z,125.88
2023-03-02T08:55:11.918Z,122.95
2023-03-02T08:57:41.492Z,124.30
2023-03-02T09:00:14.737Z,120.90
2023-03-02T09:02:42.478Z,120.13
2023-03-02T09:05:10.533Z,119.68
2023-03-02T09:07:38.183Z,116.65
2023-03-02T09:10:06.263Z,116.13
2023-03-02T09:12:33.946Z,112.82
2023-03-02T09:15:01.619Z,112.38
2023-03-02T09:17:30.607Z,111.00
2023-03-02T09:20:00.309Z,107.53
2023-03-02T09:22:28.679Z,108.53
2023-03-02T09:24:56.382Z,105.65
2023-03-02T09:27:24.130Z,106.57
2023-03-02T09:29:51.827Z,101.30
2023-03-02T09:32:19.634Z,102.15
2023-03-02T09:34:48.749Z,99.53
2023-03-02T09:37:16.446Z,99.70
2023-03-02T09:39:44.216Z,94.10
2023-03-02T09:42:19.765Z,93.07
2023-03-02T09:44:59.321Z,91.68
2023-03-02T09:47:35.589Z,88.07
2023-03-02T09:50:11.977Z,87.28
2023-03-02T09:52:40.949Z,87.43
2023-03-02T09:55:14.787Z,85.72
2023-03-02T09:57:42.478Z,84.97
2023-03-02T10:00:19.414Z,83.30
2023-03-02T10:02:49.177Z,81.22
2023-03-02T10:05:19.962Z,78.60
2023-03-02T10:07:48.567Z,80.18
2023-03-02T10:10:27.490Z,75.15
2023-03-02T10:13:02.110Z,74.60
2023-03-02T10:15:32.260Z,73.47
2023-03-02T10:18:02.023Z,75.68
2023-03-02T10:20:34.458Z,69.80
2023-03-02T10:23:16.641Z,73.25
2023-03-02T10:25:47.240Z,71.70
2023-03-02T10:28:16.974Z,68.82
2023-03-02T10:30:44.659Z,69.60
2023-03-02T10:33:14.608Z,67.63
2023-03-02T10:35:45.762Z,67.13
2023-03-02T10:38:14.193Z,67.18
2023-03-02T10:40:43.131Z,63.38
2023-03-02T10:43:15.455Z,63.45
2023-03-02T10:45:43.184Z,62.67
2023-03-02T10:48:13.634Z,61.35
2023-03-02T10:50:42.695Z,58.92
2023-03-02T10:53:18.301Z,60.28
2023-03-02T10:55:46.979Z,57.75
2023-03-02T10:58:25.362Z,56.45
2023-03-02T11:00:57.404Z,55.38
2023-03-02T11:03:25.105Z,55.67
2023-03-02T11:05:54.129Z,53.20
2023-03-02T11:08:22.844Z,52.65
2023-03-02T11:10:57.068Z,54.22
2023-03-02T11:13:29.095Z,51.28
2023-03-02T11:15:59.500Z,50.15
2023-03-02T11:18:29.103Z,49.33
2023-03-02T11:21:00.163Z,49.03
2023-03-02T11:23:35.677Z,49.15
2023-03-02T11:26:06.172Z,48.00
2023-03-02T11:28:39.084Z,46.58
2023-03-02T11:31:09.229Z,46.42
2023-03-02T11:33:38.520Z,44.90
2023-03-02T11:36:10.352Z,44.47
2023-03-02T11:38:41.745Z,44.50
2023-03-02T11:41:14.975Z,44.60
2023-03-02T11:43:42.690Z,42.22
2023-03-02T11:46:21.564Z,42.05
2023-03-02T11:48:51.318Z,40.75
2023-03-02T11:51:21.949Z,40.72
2023-03-02T11:53:51.419Z,39.55
2023-03-02T11:56:19.188Z,39.35
2023-03-02T11:58:47.101Z,39.10
2023-03-02T12:01:17.610Z,39.25
2023-03-02T12:03:46.062Z,37.13
2023-03-02T12:06:37.259Z,36.22
2023-03-02T12:09:11.127Z,35.58
2023-03-02T12:11:39.702Z,34.83
2023-03-02T12:14:22.757Z,34.33
2023-03-02T12:16:50.806Z,34.88
2023-03-02T12:19:26.830Z,33.17
2023-03-02T12:21:59.785Z,32.67
2023-03-02T12:24:28.562Z,31.92
2023-03-02T12:27:03.325Z,32.13
2023-03-02T12:29:39.488Z,29.83
2023-03-02T12:32:14.878Z,29.63
2023-03-02T12:34:43.337Z,28.25
2023-03-02T12:37:17.893Z,27.58
2023-03-02T12:40:14.879Z,26.13
2023-03-02T12:42:56.564Z,25.05
2023-03-02T12:45:35.734Z,25.00
2023-03-02T12:48:05.946Z,24.45
2023-03-02T12:50:34.995Z,23.50
2023-03-02T12:53:05.292Z,22.38
2023-03-02T12:55:34.233Z,14.75
2023-03-02T12:58:02.316Z,19.33
2023-03-02T13:00:31.030Z,18.98
2023-03-02T13:02:59.285Z,17.52
2023-03-02T13:05:28.022Z,17.20
2023-03-02T13:08:00.298Z,16.48
2023-03-02T13:10:31.601Z,15.40
2023-03-02T13:12:59.975Z,14.40
2023-03-02T13:15:27.730Z,14.80
2023-03-02T13:17:56.197Z,13.63
2023-03-02T13:20:25.324Z,13.02
2023-03-02T13:22:53.007Z,11.55
2023-03-02T13:25:24.119Z,12.13
2023-03-02T13:27:57.295Z,11.52
2023-03-02T13:30:27.366Z,11.02
2023-03-02T13:32:57.805Z,10.05
2023-03-02T13:35:26.931Z,9.50
2023-03-02T13:37:59.206Z,9.55
2023-03-02T13:40:38.768Z,8.73
2023-03-02T13:43:36.792Z,8.02
2023-03-02T13:46:05.295Z,8.60
2023-03-02T13:48:33.394Z,7.63
2023-03-02T13:51:02.807Z,8.18
2023-03-02T13:53:31.510Z,7.78
2023-03-02T13:56:00.143Z,7.95
2023-03-02T13:58:29.647Z,6.97
2023-03-02T14:00:57.373Z,6.55
2023-03-02T14:03:26.780Z,6.03
2023-03-02T14:05:54.748Z,6.22
2023-03-02T14:08:22.577Z,5.72
2023-03-02T14:10:51.476Z,6.03
2023-03-02T14:13:21.178Z,5.10
2023-03-02T14:15:51.484Z,4.55
2023-03-02T14:18:28.182Z,4.82
2023-03-02T14:20:56.360Z,5.70
2023-03-02T14:23:24.185Z,4.72
2023-03-02T14:25:52.313Z,5.18
2023-03-02T14:28:23.763Z,4.85
2023-03-02T14:30:53.667Z,4.70
2023-03-02T14:33:21.462Z,4.28
2023-03-02T14:35:49.361Z,4.72
2023-03-02T14:38:17.030Z,4.80
2023-03-02T14:40:44.780Z,5.45
2023-03-02T14:43:12.565Z,4.80
2023-03-02T14:45:40.253Z,4.13
2023-03-02T14:48:09.297Z,4.22
2023-03-02T14:50:39.820Z,3.70
2023-03-02T14:53:07.899Z,4.35
2023-03-02T14:55:36.894Z,5.05
2023-03-02T14:58:05.778Z,5.57
2023-03-02T15:00:33.557Z,5.57
2023-03-02T15:03:01.407Z,5.45
2023-03-02T15:05:31.911Z,5.53
2023-03-02T15:07:59.718Z,5.00
2023-03-02T15:10:27.508Z,5.30
2023-03-02T15:12:55.258Z,4.82
2023-03-02T15:15:24.539Z,5.43
2023-03-02T15:17:52.189Z,5.72
2023-03-02T15:20:20.105Z,4.70
2023-03-02T15:22:49.098Z,4.85
2023-03-02T15:25:17.193Z,4.82
2023-03-02T15:27:44.838Z,4.47
2023-03-02T15:30:13.277Z,4.00
2023-03-02T15:32:41.094Z,4.65
2023-03-02T15:35:09.702Z,4.25
2023-03-02T15:37:37.380Z,3.97
2023-03-02T15:40:07.719Z,4.40
2023-03-02T15:42:35.460Z,5.25
2023-03-02T15:45:03.183Z,4.97
2023-03-02T15:47:30.865Z,3.53
2023-03-02T15:49:58.536Z,4.43
2023-03-02T15:52:26.305Z,4.25
2023-03-02T15:54:54.023Z,3.92
2023-03-02T15:57:23.031Z,3.90
2023-03-02T15:59:50.718Z,4.30
2023-03-02T16:02:18.388Z,4.30
2023-03-02T16:04:46.177Z,3.95
2023-03-02T16:07:13.863Z,3.75
2023-03-02T16:09:41.550Z,3.63
2023-03-02T16:12:09.223Z,3.88
2023-03-02T16:14:38.432Z,3.63
2023-03-02T16:17:06.084Z,3.70
2023-03-02T16:19:33.809Z,3.35
2023-03-02T16:22:01.507Z,3.03
2023-03-02T16:24:29.216Z,3.72
2023-03-02T16:26:56.894Z,4.80
2023-03-02T16:29:25.118Z,5.95
2023-03-02T16:31:54.305Z,8.13
2023-03-02T16:34:22.024Z,9.40
2023-03-02T16:36:49.743Z,10.43
2023-03-02T16:39:17.404Z,11.30
2023-03-02T16:41:46.060Z,12.30
2023-03-02T16:44:14.432Z,12.45
2023-03-02T16:46:43.317Z,17.25
2023-03-02T16:49:12.538Z,13.60
2023-03-02T16:51:40.368Z,14.40
2023-03-02T16:54:08.066Z,19.90
2023-03-02T16:56:35.877Z,27.40
2023-03-02T16:59:03.536Z,22.25
2023-03-02T17:01:31.353Z,50.00
2023-03-02T17:03:59.118Z,53.15
2023-03-02T17:06:28.380Z,31.85
2023-03-02T17:08:56.112Z,33.70
2023-03-02T17:11:23.928Z,40.08
2023-03-02T17:13:51.589Z,44.53
2023-03-02T17:16:19.267Z,53.13
2023-03-02T17:18:47.517Z,57.53
2023-03-02T17:21:16.089Z,57.65
2023-03-02T17:23:47.800Z,64.07
2023-03-02T17:26:15.663Z,59.88
2023-03-02T17:28:43.318Z,62.90
2023-03-02T17:31:11.144Z,58.65
2023-03-02T17:33:39.067Z,56.80
2023-03-02T17:36:08.546Z,54.80
2023-03-02T17:38:36.374Z,57.15
2023-03-02T17:41:06.083Z,52.65
2023-03-02T17:43:34.205Z,53.15
2023-03-02T17:46:12.725Z,57.22
2023-03-02T17:48:40.910Z,58.63
2023-03-02T17:51:08.584Z,77.55
2023-03-02T17:53:36.315Z,90.82
2023-03-02T17:56:05.665Z,100.55
2023-03-02T17:58:44.318Z,108.90
2023-03-02T18:01:13.403Z,97.63
2023-03-02T18:03:41.213Z,88.57
2023-03-02T18:06:08.996Z,84.43
2023-03-02T18:08:36.867Z,77.10
2023-03-02T18:11:06.298Z,70.38
2023-03-02T18:13:33.989Z,72.90
2023-03-02T18:16:01.727Z,68.68
2023-03-02T18:18:29.453Z,62.13
2023-03-02T18:20:57.140Z,56.20
2023-03-02T18:23:24.908Z,72.53
2023-03-02T18:25:52.599Z,56.78
2023-03-02T18:28:21.619Z,49.15
2023-03-02T18:30:49.271Z,45.65
2023-03-02T18:33:16.959Z,43.30
2023-03-02T18:35:44.727Z,37.50
2023-03-02T18:38:12.397Z,35.33
2023-03-02T18:40:40.092Z,35.13
2023-03-02T18:43:07.783Z,31.45
2023-03-02T18:45:36.776Z,31.83
2023-03-02T18:48:04.567Z,28.55
2023-03-02T18:50:32.301Z,27.73
2023-03-02T18:53:00.869Z,27.08
2023-03-02T18:55:28.569Z,25.63
2023-03-02T18:57:56.327Z,24.48
2023-03-02T19:00:27.695Z,23.65
2023-03-02T19:02:56.917Z,22.30
2023-03-02T19:05:25.067Z,20.73
2023-03-02T19:07:52.774Z,19.20
2023-03-02T19:10:21.547Z,17.33
2023-03-02T19:12:49.303Z,16.63
2023-03-02T19:15:16.993Z,16.13
2023-03-02T19:17:44.743Z,15.85
2023-03-02T19:20:14.631Z,15.25
2023-03-02T19:22:42.305Z,14.43
2023-03-02T19:25:10.505Z,12.70
2023-03-02T19:27:38.180Z,12.60
2023-03-02T19:30:06.861Z,14.10
2023-03-02T19:32:34.534Z,12.25
2023-03-02T19:35:02.590Z,14.38
2023-03-02T19:37:32.510Z,11.57
2023-03-02T19:40:00.303Z,12.95
2023-03-02T19:42:30.273Z,12.40
2023-03-02T19:44:58.038Z,11.88
2023-03-02T19:47:25.721Z,11.38
2023-03-02T19:49:53.459Z,10.20
2023-03-02T19:52:21.123Z,10.52
2023-03-02T19:54:50.699Z,10.73
2023-03-02T19:57:18.772Z,10.32
2023-03-02T19:59:46.467Z,9.93
2023-03-02T20:02:14.920Z,9.80
2023-03-02T20:04:43.157Z,9.73
2023-03-02T20:07:10.830Z,8.73
2023-03-02T20:09:38.494Z,8.45
2023-03-02T20:12:08.126Z,8.60
2023-03-02T20:14:36.007Z,8.80
2023-03-02T20:17:03.890Z,7.72
2023-03-02T20:19:31.568Z,7.63
2023-03-02T20:21:59.261Z,10.00
2023-03-02T20:24:26.969Z,8.27
2023-03-02T20:26:54.636Z,11.38
2023-03-02T20:29:23.709Z,8.88
2023-03-02T20:31:51.532Z,8.65
2023-03-02T20:34:19.317Z,9.15
2023-03-02T20:36:47.095Z,9.15
2023-03-02T20:39:16.375Z,17.17
2023-03-02T20:41:44.151Z,9.00
2023-03-02T20:44:14.561Z,7.78
2023-03-02T20:46:45.576Z,8.75
2023-03-02T20:49:15.345Z,8.60
2023-03-02T20:51:45.205Z,7.85
2023-03-02T20:54:12.893Z,7.35
2023-03-02T20:56:40.667Z,7.47
2023-03-02T20:59:08.390Z,6.78
2023-03-02T21:01:36.108Z,7.15
2023-03-02T21:04:05.291Z,7.32
2023-03-02T21:06:34.464Z,6.32
2023-03-02T21:09:02.162Z,7.10
2023-03-02T21:11:30.111Z,6.95
2023-03-02T21:13:59.317Z,5.97
2023-03-02T21:16:28.524Z,6.88
2023-03-02T21:18:56.439Z,6.35
2023-03-02T21:21:39.440Z,6.47
2023-03-02T21:24:09.323Z,6.65
2023-03-02T21:26:37.401Z,6.00
2023-03-02T21:29:05.460Z,6.32
2023-03-02T21:31:33.349Z,6.32
2023-03-02T21:34:01.956Z,6.18
2023-03-02T21:36:31.021Z,5.80
2023-03-02T21:38:58.845Z,6.00
2023-03-02T21:41:26.517Z,5.72
2023-03-02T21:43:54.462Z,5.85
2023-03-02T21:46:23.002Z,5.95
2023-03-02T21:48:50.900Z,6.13
2023-03-02T21:51:18.671Z,6.00
2023-03-02T21:53:47.755Z,5.70
2023-03-02T21:56:20.719Z,5.25
2023-03-02T21:58:49.023Z,5.60
2023-03-02T22:01:16.784Z,5.38
2023-03-02T22:03:44.777Z,5.88
2023-03-02T22:06:16.761Z,5.47
2023-03-02T22:08:44.433Z,5.70
2023-03-02T22:11:15.674Z,5.60
2023-03-02T22:13:43.413Z,5.47
2023-03-02T22:16:15.302Z,5.25
2023-03-02T22:18:43.323Z,5.18
2023-03-02T22:21:22.147Z,5.68
2023-03-02T22:23:49.921Z,5.40
2023-03-02T22:26:18.908Z,5.30
2023-03-02T22:28:46.562Z,4.90
2023-03-02T22:31:18.607Z,5.35
2023-03-02T22:33:46.275Z,5.25
2023-03-02T22:36:15.920Z,4.82
2023-03-02T22:38:43.564Z,5.07
2023-03-02T22:41:13.996Z,4.95
2023-03-02T22:43:43.454Z,5.07
2023-03-02T22:46:15.392Z,5.38
2023-03-02T22:48:44.851Z,5.07
2023-03-02T22:51:16.735Z,4.90
2023-03-02T22:53:47.950Z,5.30
2023-03-02T22:56:25.165Z,5.13
2023-03-02T22:58:54.264Z,4.60
2023-03-02T23:01:23.389Z,4.80
2023-03-02T23:03:52.113Z,4.65
2023-03-02T23:06:28.770Z,4.70
2023-03-02T23:08:57.306Z,5.00
2023-03-02T23:11:25.173Z,4.72
2023-03-02T23:13:54.281Z,4.40
2023-03-02T23:16:23.078Z,4.78
2023-03-02T23:18:51.300Z,4.35
2023-03-02T23:21:20.633Z,4.35
2023-03-02T23:23:48.407Z,4.70
2023-03-02T23:26:19.430Z,4.45
2023-03-02T23:28:48.528Z,4.70
2023-03-02T23:31:18.278Z,4.75
2023-03-02T23:33:46.088Z,4.45
2023-03-02T23:36:13.781Z,4.25
2023-03-02T23:38:41.702Z,4.45
2023-03-02T23:41:09.801Z,4.28
2023-03-02T23:43:37.654Z,4.88
2023-03-02T23:46:06.010Z,4.35
2023-03-02T23:48:35.108Z,4.18
2023-03-02T23:51:02.798Z,4.28
2023-03-02T23:53:30.467Z,4.22
2023-03-02T23:55:58.132Z,4.50
2023-03-02T23:58:25.813Z,3.95
